Westerville, Ohio
Current Conditions -  °F | °C
As of 1:53 AM on Friday 31 Oct 2014 (Local Time) from KOSU Reporting Station
Broken Clouds Broken Clouds  
Wind Chill: 38°   Ceiling: 10000
Heat Index: 38°   Visibility: 10mi
Dew Point: 34°   Wind: 3mph
Humidity: 86%   Direction: 270°W
Pressure: 30.03"   Gusts: NA
Location:  40.13°N, 82.93°W
Report Text: KOSU 310553Z AUTO 27003KT 10SM FEW046 BKN100 03/01 A3003 RMK AO2 SLP172 T00330011 10083 20033 56010
Loading
Personal Weather Stations






























Interactive Weather Map New forecast layout! Learn more

10-Day Weather Forecast

Advertisements
Track Severe Weather on mobile